createdAt,value
2022-11-12T00:00:54.172Z,2.50
2022-11-12T00:01:54.239Z,2.50
2022-11-12T00:02:54.150Z,2.70
2022-11-12T00:03:54.130Z,2.80
2022-11-12T00:04:54.148Z,3.00
2022-11-12T00:05:54.115Z,2.90
2022-11-12T00:06:54.156Z,2.70
2022-11-12T00:07:54.090Z,2.50
2022-11-12T00:08:54.083Z,2.70
2022-11-12T00:09:54.091Z,2.30
2022-11-12T00:10:54.072Z,2.20
2022-11-12T00:11:54.041Z,2.70
2022-11-12T00:12:54.039Z,2.40
2022-11-12T00:13:54.020Z,2.60
2022-11-12T00:14:54.049Z,2.50
2022-11-12T00:15:54.005Z,2.40
2022-11-12T00:16:53.992Z,2.60
2022-11-12T00:17:53.992Z,2.60
2022-11-12T00:18:53.972Z,2.50
2022-11-12T00:19:53.971Z,2.20
2022-11-12T00:20:53.981Z,2.40
2022-11-12T00:21:53.941Z,2.20
2022-11-12T00:22:53.934Z,2.30
2022-11-12T00:23:53.918Z,2.20
2022-11-12T00:24:53.911Z,2.00
2022-11-12T00:25:53.900Z,2.30
2022-11-12T00:26:53.920Z,2.20
2022-11-12T00:27:53.881Z,1.80
2022-11-12T00:28:53.869Z,1.90
2022-11-12T00:29:53.858Z,1.90
2022-11-12T00:30:53.852Z,1.70
2022-11-12T00:31:53.862Z,1.90
2022-11-12T00:32:53.822Z,1.90
2022-11-12T00:33:53.820Z,2.00
2022-11-12T00:34:53.810Z,1.90
2022-11-12T00:35:53.790Z,1.80
2022-11-12T00:36:53.804Z,1.90
2022-11-12T00:37:53.771Z,1.90
2022-11-12T00:38:53.761Z,1.80
2022-11-12T00:39:53.750Z,1.90
2022-11-12T00:40:53.740Z,2.10
2022-11-12T00:41:53.750Z,1.60
2022-11-12T00:42:53.723Z,1.80
2022-11-12T00:43:53.716Z,1.60
2022-11-12T00:44:53.722Z,1.90
2022-11-12T00:45:53.689Z,1.70
2022-11-12T00:46:53.702Z,1.60
2022-11-12T00:47:53.662Z,1.60
2022-11-12T00:48:53.652Z,1.90
2022-11-12T00:49:53.640Z,1.50
2022-11-12T00:50:53.631Z,1.60
2022-11-12T00:51:53.641Z,1.60
2022-11-12T00:52:53.616Z,1.40
2022-11-12T00:53:53.599Z,1.90
2022-11-12T00:54:53.596Z,1.70
2022-11-12T00:55:53.582Z,1.60
2022-11-12T00:56:53.570Z,1.70
2022-11-12T00:57:53.582Z,2.10
2022-11-12T00:58:53.542Z,2.10
2022-11-12T01:00:50.854Z,1.70
2022-11-12T01:01:50.794Z,1.60
2022-11-12T01:02:52.586Z,1.80
2022-11-12T01:03:50.781Z,1.90
2022-11-12T01:04:50.747Z,2.00
2022-11-12T01:05:50.728Z,1.80
2022-11-12T01:06:50.760Z,2.00
2022-11-12T01:07:55.792Z,2.10
2022-11-12T01:08:51.703Z,2.10
2022-11-12T01:09:50.698Z,2.10
2022-11-12T01:10:50.688Z,2.30
2022-11-12T01:11:50.677Z,2.00
2022-11-12T01:12:50.658Z,1.70
2022-11-12T01:13:50.658Z,2.10
2022-11-12T01:14:50.635Z,2.50
2022-11-12T01:15:50.616Z,1.90
2022-11-12T01:16:50.624Z,1.90
2022-11-12T01:17:50.600Z,2.00
2022-11-12T01:18:50.623Z,2.20
2022-11-12T01:19:50.578Z,2.20
2022-11-12T01:20:50.567Z,2.30
2022-11-12T01:21:50.556Z,2.00
2022-11-12T01:22:50.555Z,2.00
2022-11-12T01:23:50.568Z,1.80
2022-11-12T01:24:50.528Z,2.20
2022-11-12T01:25:50.518Z,1.80
2022-11-12T01:26:50.505Z,1.90
2022-11-12T01:27:50.507Z,2.00
2022-11-12T01:28:50.508Z,1.80
2022-11-12T01:29:50.494Z,2.10
2022-11-12T01:30:50.468Z,1.80
2022-11-12T01:31:50.456Z,1.80
2022-11-12T01:32:50.444Z,2.00
2022-11-12T01:33:50.456Z,1.70
2022-11-12T01:34:50.434Z,2.00
2022-11-12T01:35:50.407Z,2.10
2022-11-12T01:36:50.397Z,2.10
2022-11-12T01:37:50.397Z,2.20
2022-11-12T01:38:50.415Z,2.10
2022-11-12T01:39:50.386Z,2.00
2022-11-12T01:40:50.368Z,2.30
2022-11-12T01:41:50.346Z,2.30
2022-11-12T01:42:50.328Z,1.90
2022-11-12T01:43:50.326Z,1.90
2022-11-12T01:44:50.327Z,2.20
2022-11-12T01:45:50.302Z,2.10
2022-11-12T01:46:50.309Z,2.20
2022-11-12T01:47:50.275Z,2.30
2022-11-12T01:48:50.274Z,2.20
2022-11-12T01:49:54.115Z,2.60
2022-11-12T01:50:51.266Z,2.80
2022-11-12T01:51:50.250Z,2.00
2022-11-12T01:52:50.227Z,2.60
2022-11-12T01:53:50.208Z,2.30
2022-11-12T01:54:50.233Z,2.80
2022-11-12T01:55:50.197Z,2.20
2022-11-12T01:56:50.184Z,2.40
2022-11-12T01:57:50.176Z,2.60
2022-11-12T01:58:50.167Z,2.60
2022-11-12T01:59:50.187Z,2.70
2022-11-12T02:00:50.200Z,2.50
2022-11-12T02:01:50.126Z,2.50
2022-11-12T02:02:50.129Z,2.30
2022-11-12T02:03:50.132Z,2.40
2022-11-12T02:04:50.118Z,1.90
2022-11-12T02:05:50.077Z,1.90
2022-11-12T02:06:50.163Z,2.30
2022-11-12T02:07:50.065Z,2.00
2022-11-12T02:08:50.046Z,2.00
2022-11-12T02:09:50.056Z,2.00
2022-11-12T02:10:50.036Z,1.80
2022-11-12T02:11:50.018Z,2.40
2022-11-12T02:12:50.014Z,1.90
2022-11-12T02:13:49.995Z,2.00
2022-11-12T02:14:50.014Z,1.80
2022-11-12T02:15:49.996Z,1.70
2022-11-12T02:16:49.979Z,2.30
2022-11-12T02:17:49.962Z,2.50
2022-11-12T02:18:49.948Z,1.80
2022-11-12T02:19:49.957Z,2.40
2022-11-12T02:20:49.926Z,2.70
2022-11-12T02:21:49.914Z,2.40
2022-11-12T02:22:49.904Z,2.30
2022-11-12T02:23:49.894Z,2.60
2022-11-12T02:24:49.904Z,2.40
2022-11-12T02:25:49.877Z,2.10
2022-11-12T02:26:49.893Z,2.20
2022-11-12T02:27:49.846Z,2.40
2022-11-12T02:28:49.838Z,2.40
2022-11-12T02:29:49.834Z,2.50
2022-11-12T02:30:49.819Z,2.90
2022-11-12T02:31:49.826Z,2.80
2022-11-12T02:32:49.813Z,2.90
2022-11-12T02:33:49.783Z,3.00
2022-11-12T02:34:49.766Z,2.70
2022-11-12T02:35:49.754Z,2.70
2022-11-12T02:36:49.783Z,2.80
2022-11-12T02:37:49.733Z,3.00
2022-11-12T02:38:49.727Z,2.80
2022-11-12T02:39:49.724Z,2.70
2022-11-12T02:40:49.714Z,2.60
2022-11-12T02:41:49.722Z,2.40
2022-11-12T02:42:49.682Z,2.60
2022-11-12T02:43:49.669Z,2.30
2022-11-12T02:44:49.664Z,2.90
2022-11-12T02:45:49.646Z,2.40
2022-11-12T02:46:49.664Z,2.40
2022-11-12T02:47:49.624Z,2.60
2022-11-12T02:48:49.625Z,2.50
2022-11-12T02:49:49.605Z,2.80
2022-11-12T02:50:49.601Z,2.70
2022-11-12T02:51:49.582Z,2.70
2022-11-12T02:52:49.606Z,2.80
2022-11-12T02:53:49.555Z,2.50
2022-11-12T02:54:49.564Z,2.20
2022-11-12T02:55:49.544Z,2.70
2022-11-12T02:56:49.535Z,2.30
2022-11-12T02:57:49.542Z,2.80
2022-11-12T02:58:49.512Z,2.60
2022-11-12T02:59:49.512Z,2.90
2022-11-12T03:00:49.521Z,3.70
2022-11-12T03:01:49.487Z,2.50
2022-11-12T03:02:49.493Z,2.70
2022-11-12T03:03:49.464Z,2.50
2022-11-12T03:04:49.853Z,2.70
2022-11-12T03:05:49.425Z,2.80
2022-11-12T03:06:49.473Z,2.70
2022-11-12T03:07:49.405Z,2.70
2022-11-12T03:08:49.425Z,2.80
2022-11-12T03:09:49.387Z,2.60
2022-11-12T03:10:49.377Z,2.60
2022-11-12T03:11:49.386Z,3.20
2022-11-12T03:12:49.373Z,3.10
2022-11-12T03:13:49.374Z,3.20
2022-11-12T03:14:49.346Z,2.60
2022-11-12T03:15:49.324Z,2.80
2022-11-12T03:16:49.316Z,3.30
2022-11-12T03:17:49.310Z,2.90
2022-11-12T03:18:49.294Z,2.90
2022-11-12T03:19:49.308Z,3.10
2022-11-12T03:20:49.272Z,2.40
2022-11-12T03:21:49.253Z,2.70
2022-11-12T03:22:49.274Z,2.80
2022-11-12T03:23:49.265Z,3.10
2022-11-12T03:24:49.233Z,3.60
2022-11-12T03:25:49.214Z,2.90
2022-11-12T03:26:49.204Z,3.50
2022-11-12T03:27:49.198Z,3.20
2022-11-12T03:28:49.216Z,2.90
2022-11-12T03:29:49.173Z,3.20
2022-11-12T03:30:49.194Z,3.20
2022-11-12T03:31:49.156Z,2.80
2022-11-12T03:32:49.153Z,3.30
2022-11-12T03:33:49.132Z,2.90
2022-11-12T03:34:52.979Z,3.10
2022-11-12T03:35:50.122Z,2.70
2022-11-12T03:36:49.103Z,3.20
2022-11-12T03:37:49.092Z,3.20
2022-11-12T03:38:49.085Z,3.50
2022-11-12T03:39:49.109Z,3.00
2022-11-12T03:40:49.071Z,3.10
2022-11-12T03:41:49.045Z,3.00
2022-11-12T03:42:49.034Z,3.30
2022-11-12T03:43:49.028Z,3.10
2022-11-12T03:44:49.012Z,2.90
2022-11-12T03:45:49.035Z,3.40
2022-11-12T03:46:49.001Z,2.80
2022-11-12T03:47:48.993Z,3.00
2022-11-12T03:48:48.992Z,2.90
2022-11-12T03:49:48.956Z,3.10
2022-11-12T03:50:48.985Z,2.80
2022-11-12T03:51:48.941Z,3.10
2022-11-12T03:52:48.936Z,3.50
2022-11-12T03:53:48.917Z,2.80
2022-11-12T03:54:48.923Z,2.90
2022-11-12T03:55:48.924Z,3.20
2022-11-12T03:56:48.893Z,3.30
2022-11-12T03:57:48.896Z,2.60
2022-11-12T03:58:48.873Z,3.60
2022-11-12T03:59:48.853Z,2.90
2022-11-12T04:00:48.897Z,3.10
2022-11-12T04:01:48.835Z,3.30
2022-11-12T04:02:48.825Z,3.10
2022-11-12T04:03:48.835Z,2.60
2022-11-12T04:04:48.814Z,3.20
2022-11-12T04:05:48.823Z,3.30
2022-11-12T04:06:48.817Z,2.90
2022-11-12T04:07:48.774Z,3.30
2022-11-12T04:08:48.760Z,2.90
2022-11-12T04:09:48.747Z,3.10
2022-11-12T04:10:48.761Z,3.40
2022-11-12T04:11:48.725Z,3.30
2022-11-12T04:12:48.716Z,3.30
2022-11-12T04:13:48.712Z,3.10
2022-11-12T04:14:48.718Z,3.20
2022-11-12T04:15:48.684Z,3.30
2022-11-12T04:16:48.722Z,3.00
2022-11-12T04:17:48.704Z,3.60
2022-11-12T04:18:48.680Z,3.20
2022-11-12T04:19:48.644Z,3.10
2022-11-12T04:20:48.633Z,3.20
2022-11-12T04:21:48.624Z,3.10
2022-11-12T04:22:48.633Z,3.50
2022-11-12T04:23:48.644Z,3.00
2022-11-12T04:24:48.584Z,3.10
2022-11-12T04:25:48.585Z,3.00
2022-11-12T04:26:48.606Z,3.40
2022-11-12T04:27:48.552Z,3.40
2022-11-12T04:28:48.543Z,3.40
2022-11-12T04:29:48.535Z,3.50
2022-11-12T04:30:48.523Z,3.50
2022-11-12T04:31:48.512Z,3.90
2022-11-12T04:32:48.528Z,3.50
2022-11-12T04:33:48.526Z,3.10
2022-11-12T04:34:48.560Z,3.80
2022-11-12T04:35:48.464Z,3.60
2022-11-12T04:36:48.484Z,3.30
2022-11-12T04:37:48.466Z,3.30
2022-11-12T04:38:48.488Z,3.50
2022-11-12T04:39:48.456Z,3.50
2022-11-12T04:40:48.427Z,3.30
2022-11-12T04:41:48.408Z,3.70
2022-11-12T04:42:48.393Z,4.00
2022-11-12T04:43:48.387Z,3.40
2022-11-12T04:44:48.380Z,3.60
2022-11-12T04:45:48.402Z,3.70
2022-11-12T04:46:48.372Z,3.70
2022-11-12T04:47:48.355Z,3.30
2022-11-12T04:48:48.332Z,3.50
2022-11-12T04:49:48.322Z,3.30
2022-11-12T04:50:48.327Z,3.70
2022-11-12T04:51:48.334Z,4.20
2022-11-12T04:52:48.340Z,3.90
2022-11-12T04:53:48.273Z,3.70
2022-11-12T04:54:48.270Z,3.10
2022-11-12T04:55:48.263Z,3.70
2022-11-12T04:56:48.260Z,3.40
2022-11-12T04:57:48.261Z,3.60
2022-11-12T04:58:48.251Z,3.60
2022-11-12T04:59:48.204Z,3.90
2022-11-12T05:00:48.203Z,3.50
2022-11-12T05:01:48.192Z,3.80
2022-11-12T05:02:48.194Z,3.30
2022-11-12T05:03:48.194Z,3.60
2022-11-12T05:04:48.161Z,3.80
2022-11-12T05:05:48.141Z,3.40
2022-11-12T05:06:48.190Z,3.70
2022-11-12T05:07:48.122Z,3.70
2022-11-12T05:08:48.139Z,3.50
2022-11-12T05:09:48.104Z,3.30
2022-11-12T05:10:48.100Z,4.10
2022-11-12T05:11:48.081Z,4.10
2022-11-12T05:12:48.103Z,3.60
2022-11-12T05:13:48.085Z,3.50
2022-11-12T05:14:48.050Z,3.40
2022-11-12T05:15:48.046Z,3.70
2022-11-12T05:16:48.031Z,3.70
2022-11-12T05:17:48.023Z,3.30
2022-11-12T05:18:48.007Z,3.60
2022-11-12T05:19:48.012Z,3.70
2022-11-12T05:20:47.988Z,4.10
2022-11-12T05:21:47.973Z,3.80
2022-11-12T05:23:04.414Z,3.70
2022-11-12T05:23:48.972Z,3.90
2022-11-12T05:24:47.968Z,4.70
2022-11-12T05:25:47.932Z,4.30
2022-11-12T05:26:47.922Z,4.50
2022-11-12T05:27:47.904Z,4.30
2022-11-12T05:28:47.900Z,4.70
2022-11-12T05:29:47.921Z,4.90
2022-11-12T05:30:47.895Z,4.10
2022-11-12T05:31:47.870Z,3.50
2022-11-12T05:32:47.853Z,3.70
2022-11-12T05:33:47.870Z,3.80
2022-11-12T05:34:47.844Z,3.80
2022-11-12T05:35:47.852Z,3.20
2022-11-12T05:36:47.812Z,3.20
2022-11-12T05:37:47.800Z,3.90
2022-11-12T05:38:47.790Z,3.40
2022-11-12T05:39:47.810Z,3.50
2022-11-12T05:40:47.772Z,3.90
2022-11-12T05:42:11.273Z,3.20
2022-11-12T05:42:48.752Z,3.90
2022-11-12T05:43:47.732Z,3.50
2022-11-12T05:44:47.761Z,3.80
2022-11-12T05:45:47.723Z,3.70
2022-11-12T05:46:47.701Z,3.70
2022-11-12T05:47:47.693Z,3.90
2022-11-12T05:48:47.682Z,3.50
2022-11-12T05:49:47.695Z,3.40
2022-11-12T05:51:11.404Z,3.40
2022-11-12T05:51:48.660Z,3.70
2022-11-12T05:52:47.644Z,3.80
2022-11-12T05:53:47.630Z,3.90
2022-11-12T05:54:47.669Z,3.60
2022-11-12T05:55:47.612Z,3.80
2022-11-12T05:56:47.611Z,3.80
2022-11-12T05:57:47.589Z,3.80
2022-11-12T05:58:47.580Z,3.50
2022-11-12T05:59:47.579Z,3.10
2022-11-12T06:00:47.582Z,3.90
2022-11-12T06:01:47.550Z,3.70
2022-11-12T06:02:47.724Z,3.50
2022-11-12T06:03:47.529Z,3.80
2022-11-12T06:04:47.509Z,3.60
2022-11-12T06:05:47.528Z,3.40
2022-11-12T06:06:47.572Z,3.40
2022-11-12T06:07:47.470Z,3.50
2022-11-12T06:08:47.480Z,3.40
2022-11-12T06:09:47.460Z,3.80
2022-11-12T06:10:47.480Z,4.00
2022-11-12T06:11:47.432Z,4.10
2022-11-12T06:12:47.424Z,3.70
2022-11-12T06:13:47.412Z,3.70
2022-11-12T06:14:47.411Z,3.40
2022-11-12T06:15:47.412Z,4.30
2022-11-12T06:16:47.386Z,3.80
2022-11-12T06:17:47.371Z,4.00
2022-11-12T06:18:47.383Z,4.30
2022-11-12T06:19:47.358Z,4.20
2022-11-12T06:20:47.362Z,3.60
2022-11-12T06:21:47.342Z,3.90
2022-11-12T06:22:47.320Z,3.90
2022-11-12T06:23:47.300Z,3.90
2022-11-12T06:24:47.293Z,4.20
2022-11-12T06:25:47.308Z,3.60
2022-11-12T06:26:47.291Z,4.50
2022-11-12T06:27:47.260Z,3.60
2022-11-12T06:28:47.302Z,3.60
2022-11-12T06:29:47.260Z,3.80
2022-11-12T06:30:47.234Z,4.20
2022-11-12T06:31:47.238Z,3.60
2022-11-12T06:32:47.230Z,3.80
2022-11-12T06:33:47.198Z,4.00
2022-11-12T06:34:47.189Z,3.70
2022-11-12T06:35:47.190Z,3.70
2022-11-12T06:36:47.194Z,3.90
2022-11-12T06:37:47.161Z,3.90
2022-11-12T06:38:47.148Z,4.10
2022-11-12T06:39:47.143Z,4.40
2022-11-12T06:40:47.120Z,4.30
2022-11-12T06:41:47.130Z,4.10
2022-11-12T06:42:47.115Z,4.10
2022-11-12T06:43:47.099Z,3.80
2022-11-12T06:44:47.089Z,4.30
2022-11-12T06:45:47.066Z,4.20
2022-11-12T06:46:47.101Z,4.10
2022-11-12T06:47:47.048Z,3.90
2022-11-12T06:48:47.043Z,4.20
2022-11-12T06:49:47.036Z,3.70
2022-11-12T06:50:47.019Z,4.20
2022-11-12T06:51:47.032Z,3.50
2022-11-12T06:52:46.997Z,3.80
2022-11-12T06:53:46.988Z,3.70
2022-11-12T06:54:46.988Z,3.80
2022-11-12T06:55:46.970Z,4.10
2022-11-12T06:56:46.956Z,3.90
2022-11-12T06:57:47.002Z,3.90
2022-11-12T06:58:46.928Z,3.80
2022-11-12T06:59:46.939Z,3.50
2022-11-12T07:00:54.707Z,3.40
2022-11-12T07:01:46.925Z,3.70
2022-11-12T07:02:46.909Z,3.60
2022-11-12T07:03:46.868Z,3.50
2022-11-12T07:04:46.857Z,3.80
2022-11-12T07:05:46.838Z,4.00
2022-11-12T07:06:46.928Z,4.00
2022-11-12T07:07:46.825Z,3.20
2022-11-12T07:08:46.818Z,4.00
2022-11-12T07:09:46.800Z,3.80
2022-11-12T07:10:46.797Z,4.00
2022-11-12T07:11:46.785Z,3.50
2022-11-12T07:12:52.061Z,3.90
2022-11-12T07:13:47.776Z,3.90
2022-11-12T07:14:46.750Z,3.70
2022-11-12T07:15:46.735Z,4.00
2022-11-12T07:16:46.726Z,4.40
2022-11-12T07:17:46.717Z,4.40
2022-11-12T07:18:46.729Z,4.00
2022-11-12T07:19:46.688Z,4.80
2022-11-12T07:20:46.687Z,4.30
2022-11-12T07:21:46.669Z,3.50
2022-11-12T07:22:46.665Z,3.60
2022-11-12T07:23:46.676Z,4.50
2022-11-12T07:24:46.646Z,4.50
2022-11-12T07:25:46.637Z,4.30
2022-11-12T07:26:47.779Z,4.40
2022-11-12T07:27:46.607Z,4.10
2022-11-12T07:28:46.622Z,4.10
2022-11-12T07:29:48.529Z,4.00
2022-11-12T07:30:46.577Z,4.20
2022-11-12T07:31:46.565Z,4.10
2022-11-12T07:32:51.660Z,3.70
2022-11-12T07:33:47.565Z,4.10
2022-11-12T07:34:46.535Z,3.70
2022-11-12T07:35:46.518Z,4.10
2022-11-12T07:36:46.515Z,3.90
2022-11-12T07:37:46.498Z,4.40
2022-11-12T07:38:46.519Z,3.50
2022-11-12T07:39:46.476Z,3.90
2022-11-12T07:40:46.474Z,4.30
2022-11-12T07:41:46.457Z,4.30
2022-11-12T07:42:46.455Z,4.10
2022-11-12T07:43:46.469Z,4.20
2022-11-12T07:44:46.427Z,4.30
2022-11-12T07:45:46.416Z,4.70
2022-11-12T07:46:46.411Z,4.30
2022-11-12T07:47:46.396Z,4.60
2022-11-12T07:48:46.385Z,4.00
2022-11-12T07:49:46.396Z,3.80
2022-11-12T07:50:46.365Z,4.20
2022-11-12T07:51:46.346Z,4.70
2022-11-12T07:52:46.347Z,5.20
2022-11-12T07:53:46.345Z,5.20
2022-11-12T07:54:46.324Z,4.90
2022-11-12T07:55:46.328Z,4.50
2022-11-12T07:56:46.302Z,4.70
2022-11-12T07:57:46.286Z,4.60
2022-11-12T07:58:46.278Z,4.60
2022-11-12T07:59:46.638Z,4.70
2022-11-12T08:00:46.276Z,4.90
2022-11-12T08:01:46.317Z,4.00
2022-11-12T08:02:46.235Z,4.70
2022-11-12T08:03:46.224Z,5.10
2022-11-12T08:04:46.216Z,4.30
2022-11-12T08:05:46.226Z,4.70
2022-11-12T08:06:46.251Z,4.70
2022-11-12T08:07:46.243Z,4.10
2022-11-12T08:08:46.175Z,4.90
2022-11-12T08:09:46.159Z,4.70
2022-11-12T08:10:46.173Z,4.50
2022-11-12T08:11:46.136Z,4.40
2022-11-12T08:12:46.131Z,4.60
2022-11-12T08:13:46.116Z,4.20
2022-11-12T08:14:46.107Z,4.50
2022-11-12T08:15:51.979Z,4.50
2022-11-12T08:16:47.084Z,5.00
2022-11-12T08:17:46.095Z,4.30
2022-11-12T08:18:46.075Z,4.40
2022-11-12T08:19:46.048Z,4.40
2022-11-12T08:20:46.064Z,4.30
2022-11-12T08:21:46.026Z,4.60
2022-11-12T08:22:49.243Z,5.00
2022-11-12T08:23:46.010Z,4.30
2022-11-12T08:24:45.996Z,4.80
2022-11-12T08:25:45.992Z,4.80
2022-11-12T08:26:46.016Z,4.90
2022-11-12T08:27:45.964Z,4.50
2022-11-12T08:28:45.977Z,4.70
2022-11-12T08:29:45.945Z,5.30
2022-11-12T08:30:45.926Z,5.00
2022-11-12T08:31:45.927Z,5.40
2022-11-12T08:32:45.928Z,4.80
2022-11-12T08:33:45.904Z,5.40
2022-11-12T08:34:45.906Z,5.50
2022-11-12T08:35:45.876Z,5.10
2022-11-12T08:36:45.858Z,5.30
2022-11-12T08:37:45.857Z,5.10
2022-11-12T08:38:45.837Z,5.00
2022-11-12T08:39:45.866Z,5.40
2022-11-12T08:40:45.818Z,5.10
2022-11-12T08:41:45.814Z,4.40
2022-11-12T08:42:45.795Z,4.80
2022-11-12T08:43:45.799Z,4.40
2022-11-12T08:44:45.796Z,4.80
2022-11-12T08:45:45.770Z,5.30
2022-11-12T08:46:45.756Z,4.90
2022-11-12T08:47:45.745Z,4.50
2022-11-12T08:48:45.726Z,4.30
2022-11-12T08:49:48.146Z,4.50
2022-11-12T08:50:45.707Z,4.10
2022-11-12T08:51:45.697Z,3.90
2022-11-12T08:52:45.688Z,4.30
2022-11-12T08:53:45.697Z,4.00
2022-11-12T08:54:45.685Z,4.70
2022-11-12T08:55:45.659Z,4.70
2022-11-12T08:56:45.647Z,4.50
2022-11-12T08:57:45.636Z,4.80
2022-11-12T08:58:45.617Z,4.80
2022-11-12T08:59:45.637Z,4.40
2022-11-12T09:00:45.606Z,4.80
2022-11-12T09:01:45.616Z,4.90
2022-11-12T09:02:45.576Z,4.70
2022-11-12T09:03:45.575Z,5.10
2022-11-12T09:04:45.576Z,4.90
2022-11-12T09:05:45.569Z,4.60
2022-11-12T09:06:48.717Z,4.00
2022-11-12T09:07:50.871Z,4.60
2022-11-12T09:08:45.509Z,4.60
2022-11-12T09:09:45.526Z,4.50
2022-11-12T09:10:45.486Z,4.40
2022-11-12T09:11:45.487Z,4.50
2022-11-12T09:12:45.468Z,4.20
2022-11-12T09:13:45.511Z,3.80
2022-11-12T09:14:45.446Z,3.80
2022-11-12T09:15:45.456Z,3.30
2022-11-12T09:16:45.429Z,3.60
2022-11-12T09:17:45.419Z,4.60
2022-11-12T09:18:45.404Z,3.70
2022-11-12T09:19:45.399Z,3.60
2022-11-12T09:20:45.407Z,3.60
2022-11-12T09:21:45.382Z,3.70
2022-11-12T09:22:45.365Z,4.00
2022-11-12T09:23:45.358Z,3.70
2022-11-12T09:24:45.338Z,3.80
2022-11-12T09:25:45.329Z,3.50
2022-11-12T09:26:45.331Z,3.80
2022-11-12T09:27:48.422Z,3.40
2022-11-12T09:28:45.297Z,3.30
2022-11-12T09:29:45.280Z,3.10
2022-11-12T09:30:45.290Z,3.40
2022-11-12T09:31:45.258Z,3.30
2022-11-12T09:32:45.255Z,3.40
2022-11-12T09:33:45.238Z,3.30
2022-11-12T09:34:45.220Z,2.90
2022-11-12T09:35:45.219Z,2.90
2022-11-12T09:36:45.232Z,2.80
2022-11-12T09:37:45.219Z,2.80
2022-11-12T09:38:45.301Z,2.80
2022-11-12T09:39:45.191Z,2.80
2022-11-12T09:40:45.171Z,2.70
2022-11-12T09:41:45.257Z,3.20
2022-11-12T09:42:45.249Z,3.00
2022-11-12T09:43:45.324Z,3.10
2022-11-12T09:44:45.121Z,3.90
2022-11-12T09:45:54.922Z,3.30
2022-11-12T09:46:46.116Z,3.50
2022-11-12T09:47:45.240Z,3.10
2022-11-12T09:48:45.251Z,3.40
2022-11-12T09:49:45.127Z,3.10
2022-11-12T09:50:45.077Z,2.90
2022-11-12T09:51:45.103Z,2.90
2022-11-12T09:52:45.024Z,3.10
2022-11-12T09:53:45.050Z,3.20
2022-11-12T09:54:45.016Z,2.70
2022-11-12T09:55:45.022Z,2.90
2022-11-12T09:56:45.131Z,3.00
2022-11-12T09:57:45.292Z,3.30
2022-11-12T09:58:45.084Z,3.10
2022-11-12T09:59:44.964Z,3.40
2022-11-12T10:00:45.304Z,3.20
2022-11-12T10:01:45.041Z,3.20
2022-11-12T10:02:44.941Z,2.80
2022-11-12T10:03:44.925Z,2.80
2022-11-12T10:04:44.886Z,3.00
2022-11-12T10:05:44.911Z,2.70
2022-11-12T10:06:44.886Z,3.40
2022-11-12T10:07:44.883Z,2.80
2022-11-12T10:08:44.842Z,2.90
2022-11-12T10:09:44.854Z,2.90
2022-11-12T10:10:44.824Z,3.20
2022-11-12T10:11:44.841Z,3.10
2022-11-12T10:12:44.803Z,3.30
2022-11-12T10:13:44.795Z,3.30
2022-11-12T10:14:44.846Z,2.70
2022-11-12T10:15:44.825Z,2.80
2022-11-12T10:16:45.115Z,2.60
2022-11-12T10:17:44.744Z,2.80
2022-11-12T10:18:44.748Z,2.60
2022-11-12T10:19:44.764Z,2.80
2022-11-12T10:20:44.735Z,2.60
2022-11-12T10:21:44.705Z,2.70
2022-11-12T10:22:44.695Z,2.80
2022-11-12T10:23:44.707Z,2.50
2022-11-12T10:24:44.665Z,2.60
2022-11-12T10:25:44.676Z,2.40
2022-11-12T10:26:44.664Z,2.60
2022-11-12T10:27:44.756Z,2.40
2022-11-12T10:28:44.618Z,2.80
2022-11-12T10:29:44.616Z,2.40
2022-11-12T10:30:44.597Z,2.20
2022-11-12T10:31:44.616Z,2.70
2022-11-12T10:32:44.579Z,2.60
2022-11-12T10:33:44.569Z,2.60
2022-11-12T10:34:44.557Z,2.60
2022-11-12T10:35:44.546Z,2.80
2022-11-12T10:36:44.535Z,2.40
2022-11-12T10:37:44.547Z,2.40
2022-11-12T10:38:44.509Z,2.50
2022-11-12T10:39:44.498Z,2.80
2022-11-12T10:40:44.488Z,2.60
2022-11-12T10:41:44.499Z,2.60
2022-11-12T10:42:44.470Z,2.90
2022-11-12T10:43:44.461Z,2.60
2022-11-12T10:44:44.440Z,2.80
2022-11-12T10:45:44.437Z,2.20
2022-11-12T10:46:44.438Z,2.40
2022-11-12T10:47:44.428Z,2.40
2022-11-12T10:48:44.405Z,2.50
2022-11-12T10:49:44.390Z,2.40
2022-11-12T10:50:44.392Z,2.90
2022-11-12T10:51:44.393Z,2.80
2022-11-12T10:52:44.358Z,2.20
2022-11-12T10:53:44.353Z,2.60
2022-11-12T10:54:44.333Z,2.50
2022-11-12T10:55:44.322Z,2.20
2022-11-12T10:56:44.319Z,2.20
2022-11-12T10:57:44.331Z,2.40
2022-11-12T10:58:44.300Z,2.20
2022-11-12T10:59:44.286Z,2.10
2022-11-12T11:00:44.267Z,2.30
2022-11-12T11:01:45.948Z,2.30
2022-11-12T11:02:44.264Z,2.10
2022-11-12T11:03:44.234Z,2.10
2022-11-12T11:04:44.237Z,2.00
2022-11-12T11:05:44.215Z,1.80
2022-11-12T11:06:44.307Z,2.00
2022-11-12T11:07:44.214Z,2.20
2022-11-12T11:08:44.208Z,2.30
2022-11-12T11:09:44.175Z,2.10
2022-11-12T11:10:44.155Z,1.90
2022-11-12T11:11:44.163Z,2.20
2022-11-12T11:12:44.156Z,2.40
2022-11-12T11:13:44.134Z,2.10
2022-11-12T11:14:44.108Z,2.10
2022-11-12T11:15:44.107Z,1.90
2022-11-12T11:16:44.089Z,1.70
2022-11-12T11:17:44.100Z,2.00
2022-11-12T11:18:44.066Z,2.40
2022-11-12T11:19:44.062Z,2.40
2022-11-12T11:20:44.045Z,2.10
2022-11-12T11:21:44.303Z,2.20
2022-11-12T11:22:44.049Z,2.00
2022-11-12T11:23:44.011Z,2.20
2022-11-12T11:24:43.999Z,1.80
2022-11-12T11:25:43.989Z,2.40
2022-11-12T11:26:43.979Z,2.20
2022-11-12T11:27:43.991Z,2.30
2022-11-12T11:28:43.960Z,2.10
2022-11-12T11:29:43.941Z,2.10
2022-11-12T11:30:43.930Z,2.90
2022-11-12T11:31:43.920Z,2.20
2022-11-12T11:32:43.910Z,2.20
2022-11-12T11:33:43.924Z,2.60
2022-11-12T11:34:43.884Z,2.20
2022-11-12T11:35:43.874Z,2.10
2022-11-12T11:36:43.864Z,2.20
2022-11-12T11:37:43.854Z,2.40
2022-11-12T11:38:43.864Z,2.20
2022-11-12T11:39:43.838Z,2.40
2022-11-12T11:40:43.814Z,2.20
2022-11-12T11:41:43.813Z,2.30
2022-11-12T11:42:43.796Z,2.20
2022-11-12T11:43:43.843Z,2.40
2022-11-12T11:44:43.776Z,2.50
2022-11-12T11:45:43.767Z,2.30
2022-11-12T11:46:43.756Z,2.40
2022-11-12T11:48:00.709Z,2.50
2022-11-12T11:48:44.757Z,2.50
2022-11-12T11:49:43.735Z,2.30
2022-11-12T11:50:43.713Z,2.30
2022-11-12T11:51:43.699Z,2.90
2022-11-12T11:52:43.688Z,2.30
2022-11-12T11:53:43.698Z,2.30
2022-11-12T11:54:43.688Z,2.20
2022-11-12T11:55:43.657Z,2.70
2022-11-12T11:56:43.647Z,2.20
2022-11-12T11:57:43.629Z,2.10
2022-11-12T11:58:43.619Z,2.40
2022-11-12T11:59:43.636Z,2.00
2022-11-12T12:00:43.601Z,2.20
2022-11-12T12:01:43.591Z,2.40
2022-11-12T12:02:43.580Z,2.20
2022-11-12T12:03:43.610Z,2.10
2022-11-12T12:04:43.571Z,2.10
2022-11-12T12:05:43.609Z,2.20
2022-11-12T12:06:43.588Z,2.00
2022-11-12T12:07:43.522Z,2.40
2022-11-12T12:08:43.511Z,2.10
2022-11-12T12:09:43.503Z,1.80
2022-11-12T12:11:06.755Z,2.30
2022-11-12T12:11:44.483Z,2.20
2022-11-12T12:12:43.472Z,2.30
2022-11-12T12:13:43.462Z,2.10
2022-11-12T12:14:43.454Z,1.90
2022-11-12T12:15:43.464Z,2.30
2022-11-12T12:16:43.425Z,1.90
2022-11-12T12:17:43.423Z,2.10
2022-11-12T12:18:43.414Z,2.00
2022-11-12T12:19:43.402Z,1.90
2022-11-12T12:20:43.449Z,1.90
2022-11-12T12:21:43.374Z,1.90
2022-11-12T12:22:43.358Z,1.80
2022-11-12T12:23:43.347Z,1.70
2022-11-12T12:24:43.335Z,1.80
2022-11-12T12:25:43.337Z,1.90
2022-11-12T12:26:43.360Z,1.50
2022-11-12T12:27:43.306Z,2.10
2022-11-12T12:28:43.305Z,2.00
2022-11-12T12:29:43.288Z,1.70
2022-11-12T12:30:43.279Z,1.70
2022-11-12T12:31:43.268Z,1.80
2022-11-12T12:32:43.276Z,1.70
2022-11-12T12:33:43.249Z,1.80
2022-11-12T12:34:43.230Z,1.60
2022-11-12T12:35:43.229Z,1.80
2022-11-12T12:36:43.230Z,1.70
2022-11-12T12:37:43.208Z,1.60
2022-11-12T12:38:43.190Z,1.60
2022-11-12T12:39:47.719Z,1.80
2022-11-12T12:40:44.175Z,1.70
2022-11-12T12:41:43.181Z,1.60
2022-11-12T12:42:43.159Z,1.70
2022-11-12T12:43:43.145Z,1.60
2022-11-12T12:44:43.131Z,1.60
2022-11-12T12:45:43.113Z,1.60
2022-11-12T12:46:43.112Z,1.80
2022-11-12T12:47:43.114Z,1.40
2022-11-12T12:48:43.092Z,1.90
2022-11-12T12:49:43.073Z,1.70
2022-11-12T12:50:43.066Z,1.50
2022-11-12T12:51:43.055Z,1.70
2022-11-12T12:52:43.066Z,1.70
2022-11-12T12:53:43.056Z,1.70
2022-11-12T12:54:43.026Z,1.70
2022-11-12T12:55:43.019Z,1.50
2022-11-12T12:56:43.007Z,1.50
2022-11-12T12:57:43.024Z,1.90
2022-11-12T12:58:43.026Z,1.80
2022-11-12T12:59:43.004Z,1.50
2022-11-12T13:00:42.995Z,1.50
2022-11-12T13:01:42.958Z,1.60
2022-11-12T13:02:42.948Z,1.40
2022-11-12T13:03:42.966Z,1.50
2022-11-12T13:04:42.919Z,1.50
2022-11-12T13:05:42.926Z,1.30
2022-11-12T13:06:42.927Z,1.30
2022-11-12T13:07:42.882Z,1.40
2022-11-12T13:08:42.989Z,1.30
2022-11-12T13:09:42.879Z,1.40
2022-11-12T13:10:42.961Z,1.30
2022-11-12T13:11:42.844Z,1.50
2022-11-12T13:12:42.832Z,1.30
2022-11-12T13:13:42.841Z,1.50
2022-11-12T13:14:42.811Z,1.30
2022-11-12T13:15:42.793Z,1.50
2022-11-12T13:16:42.793Z,1.40
2022-11-12T13:17:42.772Z,1.30
2022-11-12T13:18:42.774Z,1.30
2022-11-12T13:19:42.775Z,1.50